createdAt,value
2022-10-21T00:03:37.667Z,17.50
2022-10-21T00:08:01.729Z,17.50
2022-10-21T00:12:16.710Z,17.50
2022-10-21T00:17:10.031Z,17.50
2022-10-21T00:26:36.200Z,17.50
2022-10-21T00:30:58.333Z,17.40
2022-10-21T00:39:57.669Z,17.20
2022-10-21T00:44:18.456Z,17.20
2022-10-21T00:48:36.083Z,17.10
2022-10-21T00:52:45.667Z,17.10
2022-10-21T00:56:57.569Z,17.20
2022-10-21T01:05:34.588Z,17.30
2022-10-21T01:09:43.846Z,17.30
2022-10-21T01:14:27.374Z,17.30
2022-10-21T01:24:31.613Z,17.40
2022-10-21T01:29:33.168Z,17.20
2022-10-21T01:33:53.287Z,17.10
2022-10-21T01:38:17.109Z,16.90
2022-10-21T01:42:48.825Z,16.90
2022-10-21T01:47:01.348Z,17.00
2022-10-21T01:51:21.086Z,17.00
2022-10-21T01:55:33.711Z,17.10
2022-10-21T01:59:57.633Z,17.00
2022-10-21T02:04:16.911Z,17.10
2022-10-21T02:08:29.273Z,17.00
2022-10-21T02:12:44.748Z,17.00
2022-10-21T02:16:55.971Z,17.10
2022-10-21T02:21:20.587Z,17.10
2022-10-21T02:25:59.765Z,17.10
2022-10-21T02:30:51.425Z,17.10
2022-10-21T02:36:08.407Z,17.10
2022-10-21T02:40:26.770Z,17.20
2022-10-21T02:44:50.108Z,17.20
2022-10-21T02:49:35.068Z,17.10
2022-10-21T02:53:57.889Z,16.90
2022-10-21T02:58:14.950Z,16.80
2022-10-21T03:02:30.670Z,16.80
2022-10-21T03:07:02.350Z,16.80
2022-10-21T03:15:52.986Z,16.80
2022-10-21T03:20:12.249Z,16.70
2022-10-21T03:24:29.065Z,16.70
2022-10-21T03:28:50.510Z,16.60
2022-10-21T03:33:17.727Z,16.50
2022-10-21T03:37:34.685Z,16.50
2022-10-21T03:46:14.105Z,16.60
2022-10-21T03:50:27.253Z,16.60
2022-10-21T03:54:41.051Z,16.60
2022-10-21T03:58:58.554Z,16.50
2022-10-21T04:03:11.108Z,16.60
2022-10-21T04:07:22.464Z,16.60
2022-10-21T04:11:50.790Z,16.60
2022-10-21T04:16:01.383Z,16.60
2022-10-21T04:20:13.685Z,16.60
2022-10-21T04:24:25.310Z,16.60
2022-10-21T04:28:38.290Z,16.60
2022-10-21T04:32:49.287Z,16.70
2022-10-21T04:37:34.070Z,16.80
2022-10-21T04:41:46.329Z,16.80
2022-10-21T04:46:53.771Z,16.80
2022-10-21T04:51:11.705Z,16.80
2022-10-21T05:00:05.729Z,16.80
2022-10-21T05:04:18.994Z,16.70
2022-10-21T05:09:37.575Z,16.70
2022-10-21T05:14:07.189Z,16.80
2022-10-21T05:18:30.929Z,16.80
2022-10-21T05:22:52.791Z,16.80
2022-10-21T05:27:07.730Z,16.80
2022-10-21T05:31:43.164Z,16.80
2022-10-21T05:36:07.046Z,16.80
2022-10-21T05:40:38.295Z,16.80
2022-10-21T05:45:12.510Z,16.80
2022-10-21T05:49:50.690Z,16.80
2022-10-21T05:54:29.765Z,16.70
2022-10-21T05:58:48.307Z,16.70
2022-10-21T06:03:04.688Z,16.70
2022-10-21T06:07:56.309Z,16.70
2022-10-21T06:12:11.110Z,16.70
2022-10-21T06:21:37.190Z,16.70
2022-10-21T06:26:18.027Z,16.70
2022-10-21T06:31:00.666Z,16.70
2022-10-21T06:35:13.668Z,16.60
2022-10-21T06:39:22.992Z,16.60
2022-10-21T06:43:57.670Z,16.60
2022-10-21T06:53:07.590Z,16.70
2022-10-21T06:57:35.191Z,16.70
2022-10-21T07:02:06.361Z,16.80
2022-10-21T07:06:26.426Z,16.80
2022-10-21T07:11:18.851Z,16.80
2022-10-21T07:15:31.225Z,16.70
2022-10-21T07:20:22.049Z,16.70
2022-10-21T07:24:54.960Z,16.70
2022-10-21T07:29:07.710Z,16.70
2022-10-21T07:37:52.931Z,16.80
2022-10-21T07:42:32.567Z,16.90
2022-10-21T07:47:02.809Z,16.90
2022-10-21T07:51:18.207Z,17.00
2022-10-21T07:55:37.607Z,17.10
2022-10-21T07:59:47.988Z,17.10
2022-10-21T08:03:57.929Z,17.20
2022-10-21T08:08:28.425Z,17.30
2022-10-21T08:12:39.627Z,17.40
2022-10-21T08:16:55.689Z,17.40
2022-10-21T08:21:08.727Z,17.40
2022-10-21T08:25:18.668Z,17.50
2022-10-21T08:29:37.694Z,17.50
2022-10-21T08:33:57.432Z,17.60
2022-10-21T08:42:19.709Z,17.60
2022-10-21T08:46:35.827Z,17.60
2022-10-21T08:50:53.850Z,17.80
2022-10-21T08:55:11.647Z,17.70
2022-10-21T08:59:43.969Z,17.80
2022-10-21T09:04:04.846Z,17.90
2022-10-21T09:08:37.856Z,17.90
2022-10-21T09:13:02.391Z,18.00
2022-10-21T09:17:40.183Z,18.00
2022-10-21T09:22:16.377Z,18.00
2022-10-21T09:26:43.845Z,18.00
2022-10-21T09:30:53.470Z,18.10
2022-10-21T09:35:08.390Z,18.10
2022-10-21T09:39:23.288Z,18.20
2022-10-21T09:43:32.750Z,18.30
2022-10-21T09:47:43.909Z,18.40
2022-10-21T09:51:54.236Z,18.40
2022-10-21T09:56:12.131Z,18.40
2022-10-21T10:00:22.006Z,18.50
2022-10-21T10:04:36.686Z,18.50
2022-10-21T10:08:54.238Z,18.60
2022-10-21T10:13:05.250Z,18.70
2022-10-21T10:17:31.767Z,18.80
2022-10-21T10:21:45.789Z,18.90
2022-10-21T10:25:59.870Z,19.00
2022-10-21T10:30:18.950Z,19.00
2022-10-21T10:34:36.769Z,19.00
2022-10-21T10:43:33.690Z,18.90
2022-10-21T10:47:50.069Z,18.70
2022-10-21T10:52:24.678Z,18.50
2022-10-21T10:56:46.791Z,18.40
2022-10-21T11:01:02.729Z,18.40
2022-10-21T11:05:32.726Z,18.50
2022-10-21T11:09:45.325Z,18.60
2022-10-21T11:18:34.487Z,18.90
2022-10-21T11:23:01.954Z,18.90
2022-10-21T11:28:04.986Z,19.10
2022-10-21T11:32:29.128Z,19.00
2022-10-21T11:36:52.888Z,18.90
2022-10-21T11:46:38.586Z,18.90
2022-10-21T11:51:16.636Z,19.00
2022-10-21T12:00:20.534Z,18.90
2022-10-21T12:04:48.851Z,19.00
2022-10-21T12:09:28.634Z,19.30
2022-10-21T12:14:08.527Z,19.20
2022-10-21T12:18:29.004Z,19.00
2022-10-21T12:22:43.846Z,18.90
2022-10-21T12:27:12.470Z,18.70
2022-10-21T12:32:02.013Z,18.60
2022-10-21T12:36:22.404Z,18.40
2022-10-21T12:40:43.149Z,18.10
2022-10-21T12:45:09.570Z,17.90
2022-10-21T12:49:48.861Z,17.80
2022-10-21T12:54:33.327Z,17.60
2022-10-21T12:58:49.029Z,17.40
2022-10-21T13:07:39.913Z,17.30
2022-10-21T13:12:06.127Z,17.20
2022-10-21T13:16:38.849Z,17.10
2022-10-21T13:21:00.877Z,17.00
2022-10-21T13:25:23.707Z,16.90
2022-10-21T13:29:50.507Z,16.90
2022-10-21T13:34:00.788Z,16.80
2022-10-21T13:38:23.350Z,16.80
2022-10-21T13:42:52.409Z,16.70
2022-10-21T13:47:34.454Z,16.70
2022-10-21T13:51:49.210Z,16.80
2022-10-21T13:56:06.547Z,16.70
2022-10-21T14:00:21.588Z,16.80
2022-10-21T14:04:34.008Z,16.70
2022-10-21T14:08:46.329Z,16.70
2022-10-21T14:17:10.348Z,16.60
2022-10-21T14:21:24.408Z,16.50
2022-10-21T14:25:34.988Z,16.50
2022-10-21T14:29:45.885Z,16.50
2022-10-21T14:33:55.648Z,16.50
2022-10-21T14:38:28.450Z,16.50
2022-10-21T14:42:38.213Z,16.60
2022-10-21T14:46:49.765Z,16.80
2022-10-21T14:51:01.573Z,16.80
2022-10-21T14:55:17.610Z,16.60
2022-10-21T14:59:32.169Z,16.40
2022-10-21T15:03:45.707Z,16.30
2022-10-21T15:08:29.239Z,16.50
2022-10-21T15:12:43.967Z,16.80
2022-10-21T15:17:03.746Z,16.90
2022-10-21T15:21:16.888Z,16.90
2022-10-21T15:25:27.787Z,16.90
2022-10-21T15:29:40.825Z,16.90
2022-10-21T15:33:59.907Z,16.90
2022-10-21T15:38:16.648Z,16.90
2022-10-21T15:42:27.607Z,16.90
2022-10-21T15:46:46.922Z,16.90
2022-10-21T15:51:05.929Z,17.00
2022-10-21T15:55:17.050Z,17.00
2022-10-21T16:04:07.509Z,16.90
2022-10-21T16:08:20.116Z,16.90
2022-10-21T16:12:37.720Z,16.90
2022-10-21T16:16:50.747Z,16.80
2022-10-21T16:21:17.309Z,16.80
2022-10-21T16:25:29.008Z,16.70
2022-10-21T16:29:39.388Z,16.70
2022-10-21T16:38:15.399Z,16.70
2022-10-21T16:42:30.226Z,16.80
2022-10-21T16:56:21.726Z,16.70
2022-10-21T17:00:38.136Z,16.70
2022-10-21T17:04:48.749Z,16.70
2022-10-21T17:09:00.015Z,16.70
2022-10-21T17:13:18.167Z,16.60
2022-10-21T17:17:33.607Z,16.60
2022-10-21T17:21:58.185Z,16.50
2022-10-21T17:31:17.228Z,16.50
2022-10-21T17:41:24.367Z,16.50
2022-10-21T17:45:52.247Z,16.50
2022-10-21T17:50:01.485Z,16.50
2022-10-21T17:54:15.369Z,16.50
2022-10-21T18:07:42.163Z,16.50
2022-10-21T18:11:52.113Z,16.40
2022-10-21T18:16:05.468Z,16.30
2022-10-21T18:20:18.686Z,16.30
2022-10-21T18:24:31.284Z,16.20
2022-10-21T18:28:40.452Z,16.20
2022-10-21T18:32:49.767Z,16.20
2022-10-21T18:37:00.770Z,16.20
2022-10-21T18:41:20.084Z,16.20
2022-10-21T18:45:31.464Z,16.20
2022-10-21T18:49:41.005Z,16.10
2022-10-21T18:53:53.177Z,16.10
2022-10-21T18:58:02.627Z,16.10
2022-10-21T19:02:19.164Z,16.10
2022-10-21T19:06:38.335Z,16.10
2022-10-21T19:10:49.346Z,16.10
2022-10-21T19:14:58.527Z,16.10
2022-10-21T19:19:08.490Z,16.10
2022-10-21T19:23:17.708Z,16.10
2022-10-21T19:27:40.732Z,16.10
2022-10-21T19:31:50.548Z,16.10
2022-10-21T19:36:01.609Z,16.10
2022-10-21T19:40:14.167Z,16.10
2022-10-21T19:44:28.704Z,16.10
2022-10-21T19:48:38.491Z,16.10
2022-10-21T19:52:47.668Z,16.00
2022-10-21T19:56:57.035Z,16.00
2022-10-21T20:01:10.794Z,15.90
2022-10-21T20:05:20.310Z,15.90
2022-10-21T20:09:29.467Z,15.90
2022-10-21T20:13:38.826Z,15.90
2022-10-21T20:17:49.488Z,15.90
2022-10-21T20:21:58.686Z,15.80
2022-10-21T20:26:08.306Z,15.80
2022-10-21T20:30:17.727Z,15.80
2022-10-21T20:34:28.607Z,15.80
2022-10-21T20:38:38.089Z,15.90
2022-10-21T20:42:49.734Z,15.80
2022-10-21T20:46:59.245Z,15.90
2022-10-21T20:51:11.786Z,15.90
2022-10-21T20:55:21.067Z,15.90
2022-10-21T20:59:30.308Z,15.90
2022-10-21T21:03:42.128Z,15.90
2022-10-21T21:07:52.803Z,16.00
2022-10-21T21:12:04.084Z,15.90
2022-10-21T21:16:15.468Z,15.90
2022-10-21T21:20:24.648Z,15.90
2022-10-21T21:24:35.304Z,15.90
2022-10-21T21:28:44.429Z,15.90
2022-10-21T21:32:53.847Z,15.90
2022-10-21T21:37:03.026Z,15.90
2022-10-21T21:41:13.965Z,15.90
2022-10-21T21:45:23.145Z,15.90
2022-10-21T21:49:32.845Z,15.90
2022-10-21T21:53:42.072Z,15.80
2022-10-21T21:57:52.668Z,15.80
2022-10-21T22:02:03.845Z,15.80
2022-10-21T22:06:13.277Z,15.80
2022-10-21T22:10:22.906Z,15.80
2022-10-21T22:14:33.745Z,15.80
2022-10-21T22:18:42.968Z,15.70
2022-10-21T22:22:52.128Z,15.70
2022-10-21T22:27:01.307Z,15.80
2022-10-21T22:31:14.285Z,15.70
2022-10-21T22:35:23.365Z,15.70
2022-10-21T22:39:32.594Z,15.70
2022-10-21T22:43:43.054Z,15.60
2022-10-21T22:47:53.826Z,15.60
2022-10-21T22:52:03.055Z,15.70
2022-10-21T22:56:12.266Z,15.70
2022-10-21T23:00:21.745Z,15.70
2022-10-21T23:04:32.764Z,15.70
2022-10-21T23:08:42.152Z,15.80
2022-10-21T23:12:51.348Z,15.70
2022-10-21T23:17:00.506Z,15.80
2022-10-21T23:21:11.166Z,15.80
2022-10-21T23:25:20.631Z,15.80
2022-10-21T23:29:29.848Z,15.80
2022-10-21T23:33:38.987Z,15.80
2022-10-21T23:37:49.766Z,15.80
2022-10-21T23:41:58.910Z,15.70
2022-10-21T23:46:08.406Z,15.70
2022-10-21T23:50:17.985Z,15.80
2022-10-21T23:54:28.745Z,15.80
2022-10-21T23:58:38.048Z,15.90
